createdAt,value
2022-08-28T00:00:12.241Z,16.78
2022-08-28T00:01:12.231Z,16.77
2022-08-28T00:02:12.213Z,16.74
2022-08-28T00:03:12.242Z,16.74
2022-08-28T00:04:12.204Z,16.74
2022-08-28T00:05:12.190Z,16.74
2022-08-28T00:06:12.192Z,16.74
2022-08-28T00:07:12.161Z,16.73
2022-08-28T00:08:12.382Z,16.70
2022-08-28T00:09:12.149Z,16.70
2022-08-28T00:10:12.124Z,16.67
2022-08-28T00:11:12.136Z,16.67
2022-08-28T00:12:12.120Z,16.65
2022-08-28T00:13:12.097Z,16.67
2022-08-28T00:14:12.088Z,16.62
2022-08-28T00:15:12.853Z,16.62
2022-08-28T00:16:12.128Z,16.62
2022-08-28T00:17:12.114Z,16.60
2022-08-28T00:18:12.232Z,16.56
2022-08-28T00:19:12.038Z,16.56
2022-08-28T00:20:12.019Z,16.53
2022-08-28T00:21:12.019Z,16.53
2022-08-28T00:22:11.997Z,16.53
2022-08-28T00:23:12.014Z,16.55
2022-08-28T00:24:11.985Z,16.53
2022-08-28T00:25:11.970Z,16.52
2022-08-28T00:26:11.950Z,16.52
2022-08-28T00:27:11.951Z,16.50
2022-08-28T00:28:23.491Z,16.48
2022-08-28T00:29:11.960Z,16.48
2022-08-28T00:30:11.899Z,16.48
2022-08-28T00:31:11.961Z,16.50
2022-08-28T00:32:11.879Z,16.49
2022-08-28T00:33:11.881Z,16.48
2022-08-28T00:34:11.901Z,16.45
2022-08-28T00:35:11.850Z,16.45
2022-08-28T00:36:11.847Z,16.42
2022-08-28T00:37:11.831Z,16.44
2022-08-28T00:38:12.007Z,16.44
2022-08-28T00:39:11.824Z,16.41
2022-08-28T00:40:11.865Z,16.41
2022-08-28T00:41:11.801Z,16.41
2022-08-28T00:42:11.767Z,16.40
2022-08-28T00:43:11.762Z,16.41
2022-08-28T00:44:11.764Z,16.41
2022-08-28T00:45:11.743Z,16.41
2022-08-28T00:46:11.771Z,16.41
2022-08-28T00:47:11.719Z,16.41
2022-08-28T00:48:11.795Z,16.38
2022-08-28T00:49:11.695Z,16.35
2022-08-28T00:50:11.713Z,16.34
2022-08-28T00:51:11.683Z,16.33
2022-08-28T00:52:12.053Z,16.33
2022-08-28T00:53:11.672Z,16.33
2022-08-28T00:54:11.648Z,16.31
2022-08-28T00:55:11.625Z,16.31
2022-08-28T00:56:12.865Z,16.31
2022-08-28T00:57:11.606Z,16.30
2022-08-28T00:58:11.776Z,16.30
2022-08-28T00:59:11.588Z,16.30
2022-08-28T01:00:11.621Z,16.27
2022-08-28T01:01:11.563Z,16.26
2022-08-28T01:02:11.551Z,16.23
2022-08-28T01:03:11.572Z,16.23
2022-08-28T01:04:11.529Z,16.22
2022-08-28T01:05:11.530Z,16.20
2022-08-28T01:06:11.517Z,16.20
2022-08-28T01:07:11.517Z,16.20
2022-08-28T01:08:11.750Z,16.20
2022-08-28T01:09:11.483Z,16.20
2022-08-28T01:10:11.466Z,16.20
2022-08-28T01:11:11.497Z,16.18
2022-08-28T01:12:11.466Z,16.16
2022-08-28T01:13:11.433Z,16.15
2022-08-28T01:14:11.416Z,16.15
2022-08-28T01:15:11.399Z,16.15
2022-08-28T01:16:11.445Z,16.11
2022-08-28T01:17:11.400Z,16.11
2022-08-28T01:18:11.505Z,16.11
2022-08-28T01:19:11.377Z,16.11
2022-08-28T01:20:11.352Z,16.07
2022-08-28T01:21:11.334Z,16.04
2022-08-28T01:22:11.357Z,16.03
2022-08-28T01:23:11.316Z,16.01
2022-08-28T01:24:11.302Z,16.00
2022-08-28T01:25:11.295Z,15.99
2022-08-28T01:26:11.870Z,15.97
2022-08-28T01:27:11.286Z,15.96
2022-08-28T01:28:11.580Z,15.94
2022-08-28T01:29:11.244Z,15.94
2022-08-28T01:30:11.244Z,15.93
2022-08-28T01:31:11.294Z,15.93
2022-08-28T01:32:11.239Z,15.92
2022-08-28T01:33:12.017Z,15.92
2022-08-28T01:34:11.191Z,15.89
2022-08-28T01:35:11.193Z,15.92
2022-08-28T01:36:11.174Z,15.92
2022-08-28T01:37:11.190Z,15.92
2022-08-28T01:38:11.367Z,15.92
2022-08-28T01:39:11.153Z,15.89
2022-08-28T01:40:11.211Z,15.89
2022-08-28T01:41:11.125Z,15.88
2022-08-28T01:42:11.117Z,15.88
2022-08-28T01:43:11.100Z,15.88
2022-08-28T01:44:11.083Z,15.86
2022-08-28T01:45:11.068Z,15.86
2022-08-28T01:46:11.103Z,15.84
2022-08-28T01:47:11.083Z,15.82
2022-08-28T01:48:11.236Z,15.81
2022-08-28T01:49:11.035Z,15.79
2022-08-28T01:50:11.035Z,15.78
2022-08-28T01:51:11.014Z,15.75
2022-08-28T01:52:11.731Z,15.74
2022-08-28T01:53:12.473Z,15.70
2022-08-28T01:54:11.874Z,15.68
2022-08-28T01:55:10.958Z,15.67
2022-08-28T01:56:10.945Z,15.66
2022-08-28T01:57:10.953Z,15.64
2022-08-28T01:58:11.046Z,15.66
2022-08-28T01:59:10.928Z,15.64
2022-08-28T02:00:10.914Z,15.66
2022-08-28T02:01:10.982Z,15.63
2022-08-28T02:02:11.011Z,15.61
2022-08-28T02:03:10.879Z,15.60
2022-08-28T02:04:10.889Z,15.59
2022-08-28T02:05:10.859Z,15.59
2022-08-28T02:06:10.835Z,15.57
2022-08-28T02:07:10.850Z,15.52
2022-08-28T02:08:10.958Z,15.51
2022-08-28T02:09:14.517Z,15.49
2022-08-28T02:10:10.803Z,15.48
2022-08-28T02:11:10.793Z,15.45
2022-08-28T02:12:10.793Z,15.46
2022-08-28T02:13:10.772Z,15.45
2022-08-28T02:14:10.768Z,15.45
2022-08-28T02:15:10.763Z,15.43
2022-08-28T02:16:10.854Z,15.45
2022-08-28T02:17:10.755Z,15.43
2022-08-28T02:18:10.865Z,15.43
2022-08-28T02:19:10.703Z,15.41
2022-08-28T02:20:10.694Z,15.41
2022-08-28T02:21:10.691Z,15.39
2022-08-28T02:22:10.729Z,15.39
2022-08-28T02:23:10.665Z,15.38
2022-08-28T02:24:10.651Z,15.38
2022-08-28T02:25:10.646Z,15.36
2022-08-28T02:26:10.643Z,15.35
2022-08-28T02:27:10.626Z,15.35
2022-08-28T02:28:10.684Z,15.31
2022-08-28T02:29:10.599Z,15.28
2022-08-28T02:30:10.585Z,15.26
2022-08-28T02:31:10.762Z,15.24
2022-08-28T02:32:10.565Z,15.23
2022-08-28T02:33:10.589Z,15.23
2022-08-28T02:34:10.543Z,15.20
2022-08-28T02:35:12.061Z,15.19
2022-08-28T02:36:10.516Z,15.15
2022-08-28T02:37:10.519Z,15.13
2022-08-28T02:38:10.517Z,15.12
2022-08-28T02:39:10.498Z,15.11
2022-08-28T02:40:10.503Z,15.09
2022-08-28T02:41:10.473Z,15.05
2022-08-28T02:42:10.456Z,15.01
2022-08-28T02:43:10.477Z,14.98
2022-08-28T02:44:10.441Z,14.93
2022-08-28T02:45:10.430Z,14.90
2022-08-28T02:46:10.505Z,14.87
2022-08-28T02:47:10.407Z,14.84
2022-08-28T02:48:15.728Z,14.84
2022-08-28T02:49:10.388Z,14.81
2022-08-28T02:50:10.372Z,14.81
2022-08-28T02:51:10.372Z,14.84
2022-08-28T02:52:10.345Z,14.83
2022-08-28T02:53:10.361Z,14.84
2022-08-28T02:54:10.330Z,14.83
2022-08-28T02:55:10.332Z,14.83
2022-08-28T02:56:10.315Z,14.81
2022-08-28T02:57:10.304Z,14.81
2022-08-28T02:58:10.307Z,14.81
2022-08-28T02:59:10.281Z,14.83
2022-08-28T03:00:10.256Z,14.83
2022-08-28T03:01:10.261Z,14.81
2022-08-28T03:02:10.302Z,14.83
2022-08-28T03:03:10.248Z,14.75
2022-08-28T03:04:10.214Z,14.78
2022-08-28T03:05:10.212Z,14.78
2022-08-28T03:06:10.194Z,14.78
2022-08-28T03:07:11.194Z,14.78
2022-08-28T03:08:10.210Z,14.78
2022-08-28T03:09:10.174Z,14.80
2022-08-28T03:10:10.164Z,14.83
2022-08-28T03:11:10.151Z,14.81
2022-08-28T03:12:10.135Z,14.81
2022-08-28T03:13:10.138Z,14.81
2022-08-28T03:14:10.115Z,14.81
2022-08-28T03:15:10.109Z,14.81
2022-08-28T03:16:10.089Z,14.80
2022-08-28T03:17:10.081Z,14.80
2022-08-28T03:18:11.248Z,14.75
2022-08-28T03:19:10.060Z,14.72
2022-08-28T03:20:10.054Z,14.69
2022-08-28T03:21:10.042Z,14.69
2022-08-28T03:22:10.028Z,14.69
2022-08-28T03:23:10.034Z,14.68
2022-08-28T03:24:10.004Z,14.69
2022-08-28T03:25:10.010Z,14.65
2022-08-28T03:26:09.972Z,14.65
2022-08-28T03:27:09.968Z,14.65
2022-08-28T03:28:09.972Z,14.65
2022-08-28T03:29:09.940Z,14.65
2022-08-28T03:30:09.934Z,14.65
2022-08-28T03:31:10.000Z,14.67
2022-08-28T03:32:09.913Z,14.67
2022-08-28T03:33:09.928Z,14.68
2022-08-28T03:34:16.478Z,14.64
2022-08-28T03:35:09.878Z,14.65
2022-08-28T03:36:09.861Z,14.62
2022-08-28T03:37:09.863Z,14.61
2022-08-28T03:38:09.961Z,14.60
2022-08-28T03:39:09.845Z,14.57
2022-08-28T03:40:09.862Z,14.56
2022-08-28T03:41:09.844Z,14.56
2022-08-28T03:42:09.799Z,14.56
2022-08-28T03:43:09.813Z,14.53
2022-08-28T03:44:09.785Z,14.53
2022-08-28T03:45:09.793Z,14.50
2022-08-28T03:46:09.844Z,14.47
2022-08-28T03:47:09.751Z,14.47
2022-08-28T03:48:09.794Z,14.43
2022-08-28T03:49:09.746Z,14.43
2022-08-28T03:50:10.382Z,14.42
2022-08-28T03:51:09.712Z,14.43
2022-08-28T03:52:09.703Z,14.42
2022-08-28T03:53:09.705Z,14.42
2022-08-28T03:54:09.684Z,14.38
2022-08-28T03:55:09.664Z,14.35
2022-08-28T03:56:09.660Z,14.35
2022-08-28T03:57:09.662Z,14.35
2022-08-28T03:58:09.719Z,14.34
2022-08-28T03:59:09.640Z,14.35
2022-08-28T04:00:09.612Z,14.32
2022-08-28T04:01:09.690Z,14.29
2022-08-28T04:02:09.607Z,14.28
2022-08-28T04:03:09.685Z,14.25
2022-08-28T04:04:09.601Z,14.21
2022-08-28T04:05:09.552Z,14.20
2022-08-28T04:06:09.542Z,14.20
2022-08-28T04:07:09.538Z,14.19
2022-08-28T04:08:09.631Z,14.17
2022-08-28T04:09:09.521Z,14.16
2022-08-28T04:10:09.500Z,14.17
2022-08-28T04:11:09.485Z,14.17
2022-08-28T04:12:09.484Z,14.17
2022-08-28T04:13:09.476Z,14.17
2022-08-28T04:14:09.454Z,14.17
2022-08-28T04:15:09.451Z,14.17
2022-08-28T04:16:09.466Z,14.19
2022-08-28T04:17:09.440Z,14.19
2022-08-28T04:18:09.488Z,14.19
2022-08-28T04:19:09.394Z,14.19
2022-08-28T04:20:09.395Z,14.19
2022-08-28T04:21:09.394Z,14.19
2022-08-28T04:22:09.371Z,14.17
2022-08-28T04:23:09.379Z,14.16
2022-08-28T04:24:09.892Z,14.16
2022-08-28T04:25:09.342Z,14.14
2022-08-28T04:26:09.335Z,14.13
2022-08-28T04:27:09.316Z,14.13
2022-08-28T04:28:09.401Z,14.10
2022-08-28T04:29:09.289Z,14.10
2022-08-28T04:30:09.912Z,14.10
2022-08-28T04:31:09.275Z,14.09
2022-08-28T04:32:09.357Z,14.10
2022-08-28T04:33:09.271Z,14.09
2022-08-28T04:34:09.239Z,14.07
2022-08-28T04:35:09.227Z,14.06
2022-08-28T04:36:09.218Z,14.06
2022-08-28T04:37:09.202Z,14.07
2022-08-28T04:38:09.312Z,14.07
2022-08-28T04:39:09.180Z,14.04
2022-08-28T04:40:09.228Z,14.04
2022-08-28T04:41:09.159Z,14.06
2022-08-28T04:42:09.148Z,14.04
2022-08-28T04:43:09.152Z,14.02
2022-08-28T04:44:09.143Z,13.99
2022-08-28T04:45:09.120Z,13.98
2022-08-28T04:46:09.302Z,13.98
2022-08-28T04:47:09.117Z,13.96
2022-08-28T04:48:13.067Z,13.95
2022-08-28T04:49:09.068Z,13.95
2022-08-28T04:50:09.065Z,13.92
2022-08-28T04:51:09.051Z,13.92
2022-08-28T04:52:09.047Z,13.92
2022-08-28T04:53:09.038Z,13.94
2022-08-28T04:54:09.024Z,13.94
2022-08-28T04:55:09.009Z,13.91
2022-08-28T04:56:08.996Z,13.92
2022-08-28T04:57:08.972Z,13.88
2022-08-28T04:58:09.064Z,13.83
2022-08-28T04:59:08.963Z,13.81
2022-08-28T05:00:08.952Z,13.80
2022-08-28T05:01:09.025Z,13.79
2022-08-28T05:02:08.998Z,13.79
2022-08-28T05:03:08.946Z,13.79
2022-08-28T05:04:08.916Z,13.79
2022-08-28T05:05:08.893Z,13.80
2022-08-28T05:06:08.896Z,13.80
2022-08-28T05:07:08.870Z,13.81
2022-08-28T05:08:08.874Z,13.81
2022-08-28T05:09:08.847Z,13.84
2022-08-28T05:10:08.833Z,13.87
2022-08-28T05:11:08.846Z,13.88
2022-08-28T05:12:08.827Z,13.89
2022-08-28T05:13:08.826Z,13.91
2022-08-28T05:14:11.598Z,13.92
2022-08-28T05:15:08.782Z,13.95
2022-08-28T05:16:08.840Z,13.95
2022-08-28T05:17:08.761Z,13.96
2022-08-28T05:18:08.808Z,13.96
2022-08-28T05:19:08.738Z,13.95
2022-08-28T05:20:08.728Z,13.95
2022-08-28T05:21:13.858Z,13.89
2022-08-28T05:22:08.722Z,13.87
2022-08-28T05:23:08.716Z,13.87
2022-08-28T05:24:08.689Z,13.87
2022-08-28T05:25:08.681Z,13.88
2022-08-28T05:26:08.657Z,13.88
2022-08-28T05:27:08.666Z,13.91
2022-08-28T05:28:08.702Z,13.94
2022-08-28T05:29:08.657Z,13.96
2022-08-28T05:30:08.622Z,14.02
2022-08-28T05:31:08.668Z,14.07
2022-08-28T05:32:08.597Z,14.13
2022-08-28T05:33:08.594Z,14.17
2022-08-28T05:34:08.579Z,14.21
2022-08-28T05:35:08.560Z,14.21
2022-08-28T05:36:08.563Z,14.25
2022-08-28T05:37:08.548Z,14.28
2022-08-28T05:38:08.715Z,14.28
2022-08-28T05:39:08.527Z,14.29
2022-08-28T05:40:08.523Z,14.28
2022-08-28T05:41:08.520Z,14.32
2022-08-28T05:42:08.493Z,14.32
2022-08-28T05:43:08.482Z,14.34
2022-08-28T05:44:08.479Z,14.37
2022-08-28T05:45:08.452Z,14.38
2022-08-28T05:46:08.497Z,14.39
2022-08-28T05:47:08.430Z,14.42
2022-08-28T05:48:08.513Z,14.43
2022-08-28T05:49:10.197Z,14.46
2022-08-28T05:50:08.403Z,14.47
2022-08-28T05:51:08.397Z,14.50
2022-08-28T05:52:08.391Z,14.50
2022-08-28T05:53:08.396Z,14.53
2022-08-28T05:54:08.362Z,14.53
2022-08-28T05:55:08.343Z,14.57
2022-08-28T05:56:08.330Z,14.61
2022-08-28T05:57:08.325Z,14.67
2022-08-28T05:58:08.402Z,14.69
2022-08-28T05:59:08.312Z,14.74
2022-08-28T06:00:08.297Z,14.78
2022-08-28T06:01:08.272Z,14.83
2022-08-28T06:02:08.333Z,14.87
2022-08-28T06:03:08.250Z,14.90
2022-08-28T06:04:08.321Z,14.94
2022-08-28T06:05:08.242Z,14.95
2022-08-28T06:06:08.218Z,14.99
2022-08-28T06:07:08.220Z,15.01
2022-08-28T06:08:08.224Z,15.05
2022-08-28T06:09:08.207Z,15.08
2022-08-28T06:10:10.627Z,15.09
2022-08-28T06:11:08.174Z,15.11
2022-08-28T06:12:08.154Z,15.13
2022-08-28T06:13:08.157Z,15.17
2022-08-28T06:14:08.175Z,15.21
2022-08-28T06:15:08.130Z,15.27
2022-08-28T06:16:08.174Z,15.31
2022-08-28T06:17:08.110Z,15.36
2022-08-28T06:18:08.097Z,15.39
2022-08-28T06:19:08.110Z,15.42
2022-08-28T06:20:08.081Z,15.45
2022-08-28T06:21:08.048Z,15.49
2022-08-28T06:22:08.054Z,15.51
2022-08-28T06:23:08.031Z,15.54
2022-08-28T06:24:08.042Z,15.59
2022-08-28T06:25:08.244Z,15.60
2022-08-28T06:26:08.013Z,15.61
2022-08-28T06:27:07.996Z,15.64
2022-08-28T06:28:07.997Z,15.66
2022-08-28T06:29:07.989Z,15.66
2022-08-28T06:30:07.970Z,15.68
2022-08-28T06:31:26.549Z,15.70
2022-08-28T06:32:08.006Z,15.72
2022-08-28T06:33:07.928Z,15.74
2022-08-28T06:34:07.945Z,15.76
2022-08-28T06:35:07.921Z,15.76
2022-08-28T06:36:07.911Z,15.79
2022-08-28T06:37:07.883Z,15.79
2022-08-28T06:38:07.878Z,15.81
2022-08-28T06:39:07.879Z,15.81
2022-08-28T06:40:07.904Z,15.81
2022-08-28T06:41:07.841Z,15.84
2022-08-28T06:42:07.826Z,15.86
2022-08-28T06:43:07.821Z,15.89
2022-08-28T06:44:07.842Z,15.93
2022-08-28T06:45:07.791Z,15.94
2022-08-28T06:46:07.836Z,15.94
2022-08-28T06:47:07.777Z,15.97
2022-08-28T06:48:07.824Z,16.00
2022-08-28T06:49:07.780Z,16.00
2022-08-28T06:50:07.766Z,16.03
2022-08-28T06:51:07.766Z,16.07
2022-08-28T06:52:07.731Z,16.11
2022-08-28T06:53:07.710Z,16.14
2022-08-28T06:54:07.727Z,16.16
2022-08-28T06:55:07.698Z,16.20
2022-08-28T06:56:07.684Z,16.25
2022-08-28T06:57:07.671Z,16.27
2022-08-28T06:58:07.671Z,16.33
2022-08-28T06:59:07.672Z,16.35
2022-08-28T07:00:07.655Z,16.42
2022-08-28T07:01:07.691Z,16.48
2022-08-28T07:02:07.749Z,16.52
2022-08-28T07:03:07.605Z,16.56
2022-08-28T07:04:07.616Z,16.59
2022-08-28T07:05:07.574Z,16.67
2022-08-28T07:06:07.594Z,16.70
2022-08-28T07:07:07.558Z,16.74
2022-08-28T07:08:07.557Z,16.80
2022-08-28T07:09:07.548Z,16.86
2022-08-28T07:10:07.528Z,16.89
2022-08-28T07:11:07.516Z,16.95
2022-08-28T07:12:07.504Z,17.00
2022-08-28T07:13:07.474Z,17.03
2022-08-28T07:14:07.517Z,17.04
2022-08-28T07:15:07.480Z,17.07
2022-08-28T07:16:07.507Z,17.11
2022-08-28T07:17:07.445Z,17.17
2022-08-28T07:18:07.432Z,17.22
2022-08-28T07:19:07.438Z,17.26
2022-08-28T07:20:07.405Z,17.32
2022-08-28T07:21:12.123Z,17.36
2022-08-28T07:22:07.395Z,17.41
2022-08-28T07:23:07.369Z,17.46
2022-08-28T07:24:07.389Z,17.48
2022-08-28T07:25:07.355Z,17.50
2022-08-28T07:26:07.360Z,17.53
2022-08-28T07:27:07.336Z,17.57
2022-08-28T07:28:07.332Z,17.59
2022-08-28T07:29:10.319Z,17.63
2022-08-28T07:30:07.306Z,17.69
2022-08-28T07:31:07.340Z,17.69
2022-08-28T07:32:07.277Z,17.70
2022-08-28T07:33:07.260Z,17.71
2022-08-28T07:34:07.287Z,17.74
2022-08-28T07:35:07.246Z,17.79
2022-08-28T07:36:07.247Z,17.79
2022-08-28T07:37:07.223Z,17.81
2022-08-28T07:38:07.211Z,17.79
2022-08-28T07:39:07.226Z,17.82
2022-08-28T07:40:07.238Z,17.87
2022-08-28T07:41:07.165Z,17.88
2022-08-28T07:42:07.220Z,17.92
2022-08-28T07:43:07.157Z,17.97
2022-08-28T07:44:07.176Z,18.02
2022-08-28T07:45:07.171Z,18.04
2022-08-28T07:46:07.274Z,18.06
2022-08-28T07:47:08.877Z,18.07
2022-08-28T07:48:10.835Z,18.07
2022-08-28T07:49:07.175Z,18.07
2022-08-28T07:50:07.086Z,18.10
2022-08-28T07:51:07.091Z,18.15
2022-08-28T07:52:07.081Z,18.13
2022-08-28T07:53:07.070Z,18.15
2022-08-28T07:54:07.056Z,18.12
2022-08-28T07:55:07.042Z,18.15
2022-08-28T07:56:07.032Z,18.18
2022-08-28T07:57:07.050Z,18.21
2022-08-28T07:58:07.003Z,18.25
2022-08-28T07:59:07.052Z,18.28
2022-08-28T08:00:06.989Z,18.33
2022-08-28T08:01:07.049Z,18.36
2022-08-28T08:02:06.949Z,18.36
2022-08-28T08:03:07.015Z,18.37
2022-08-28T08:04:06.943Z,18.39
2022-08-28T08:05:06.933Z,18.39
2022-08-28T08:06:06.908Z,18.40
2022-08-28T08:07:06.900Z,18.46
2022-08-28T08:08:06.926Z,18.49
2022-08-28T08:09:06.883Z,18.55
2022-08-28T08:10:06.867Z,18.59
2022-08-28T08:11:06.854Z,18.65
2022-08-28T08:12:06.839Z,18.70
2022-08-28T08:13:06.833Z,18.74
2022-08-28T08:14:06.870Z,18.80
2022-08-28T08:15:06.817Z,18.91
2022-08-28T08:16:06.919Z,18.99
2022-08-28T08:17:07.322Z,19.10
2022-08-28T08:18:06.797Z,19.18
2022-08-28T08:19:06.780Z,19.23
2022-08-28T08:20:06.845Z,19.23
2022-08-28T08:21:06.742Z,19.24
2022-08-28T08:22:06.731Z,19.32
2022-08-28T08:23:06.733Z,19.39
2022-08-28T08:24:06.731Z,19.48
2022-08-28T08:25:06.703Z,19.54
2022-08-28T08:26:06.710Z,19.60
2022-08-28T08:27:06.726Z,19.57
2022-08-28T08:28:06.745Z,19.61
2022-08-28T08:29:06.689Z,19.69
2022-08-28T08:30:06.643Z,19.70
2022-08-28T08:31:06.679Z,19.75
2022-08-28T08:32:06.647Z,19.76
2022-08-28T08:33:06.634Z,19.79
2022-08-28T08:34:06.640Z,19.88
2022-08-28T08:35:06.599Z,20.00
2022-08-28T08:36:06.640Z,20.13
2022-08-28T08:37:06.611Z,20.27
2022-08-28T08:38:06.573Z,20.33
2022-08-28T08:39:09.729Z,20.33
2022-08-28T08:40:10.560Z,20.39
2022-08-28T08:41:06.522Z,20.42
2022-08-28T08:42:06.558Z,20.41
2022-08-28T08:43:06.515Z,20.51
2022-08-28T08:44:06.512Z,20.50
2022-08-28T08:45:06.505Z,20.47
2022-08-28T08:46:06.556Z,20.41
2022-08-28T08:47:08.659Z,20.38
2022-08-28T08:48:06.457Z,20.35
2022-08-28T08:49:06.475Z,20.28
2022-08-28T08:50:06.424Z,20.20
2022-08-28T08:51:06.422Z,20.13
2022-08-28T08:52:06.459Z,20.05
2022-08-28T08:53:06.397Z,20.06
2022-08-28T08:54:06.397Z,19.98
2022-08-28T08:55:06.395Z,19.91
2022-08-28T08:56:06.374Z,19.86
2022-08-28T08:57:06.359Z,19.90
2022-08-28T08:58:06.420Z,19.90
2022-08-28T08:59:06.342Z,19.94
2022-08-28T09:00:06.319Z,19.97
2022-08-28T09:01:06.380Z,20.00
2022-08-28T09:02:06.321Z,20.08
2022-08-28T09:03:06.347Z,20.23
2022-08-28T09:04:06.288Z,20.38
2022-08-28T09:05:06.298Z,20.54
2022-08-28T09:06:06.261Z,20.62
2022-08-28T09:07:06.258Z,20.77
2022-08-28T09:08:06.251Z,20.81
2022-08-28T09:09:06.237Z,20.86
2022-08-28T09:10:06.231Z,20.87
2022-08-28T09:11:06.203Z,20.89
2022-08-28T09:12:06.201Z,20.83
2022-08-28T09:13:06.174Z,20.77
2022-08-28T09:14:06.205Z,20.72
2022-08-28T09:15:06.179Z,20.68
2022-08-28T09:16:06.194Z,20.71
2022-08-28T09:17:06.133Z,20.71
2022-08-28T09:18:06.136Z,20.74
2022-08-28T09:19:06.133Z,20.77
2022-08-28T09:20:06.104Z,20.81
2022-08-28T09:21:06.091Z,20.86
2022-08-28T09:22:06.091Z,20.87
2022-08-28T09:23:12.567Z,20.84
2022-08-28T09:24:07.333Z,20.84
2022-08-28T09:25:06.052Z,20.79
2022-08-28T09:26:06.043Z,20.80
2022-08-28T09:27:06.025Z,20.80
2022-08-28T09:28:06.084Z,20.80
2022-08-28T09:29:06.020Z,20.77
2022-08-28T09:30:07.808Z,20.72
2022-08-28T09:31:06.048Z,20.64
2022-08-28T09:32:05.965Z,20.58
2022-08-28T09:33:05.958Z,20.62
2022-08-28T09:34:18.664Z,20.69
2022-08-28T09:35:05.937Z,20.86
2022-08-28T09:36:05.917Z,20.99
2022-08-28T09:37:05.908Z,21.05
2022-08-28T09:38:05.921Z,21.13
2022-08-28T09:39:05.904Z,21.11
2022-08-28T09:40:05.930Z,21.13
2022-08-28T09:41:05.869Z,21.11
2022-08-28T09:42:05.858Z,21.11
2022-08-28T09:43:05.846Z,21.06
2022-08-28T09:44:05.848Z,21.01
2022-08-28T09:45:09.045Z,20.96
2022-08-28T09:46:05.891Z,20.96
2022-08-28T09:47:05.806Z,20.98
2022-08-28T09:48:05.783Z,20.98
2022-08-28T09:49:05.801Z,20.96
2022-08-28T09:50:05.773Z,21.01
2022-08-28T09:51:05.756Z,21.05
2022-08-28T09:52:05.753Z,21.11
2022-08-28T09:53:05.738Z,21.16
2022-08-28T09:54:05.741Z,21.19
2022-08-28T09:55:05.718Z,21.19
2022-08-28T09:56:05.713Z,21.17
2022-08-28T09:57:05.693Z,21.17
2022-08-28T09:58:05.793Z,21.19
2022-08-28T09:59:05.724Z,21.16
2022-08-28T10:00:05.660Z,21.13
2022-08-28T10:01:05.653Z,21.14
2022-08-28T10:02:05.699Z,21.17
2022-08-28T10:03:07.622Z,21.20
2022-08-28T10:04:05.668Z,21.19
2022-08-28T10:05:05.604Z,21.20
2022-08-28T10:06:05.602Z,21.16
2022-08-28T10:07:05.624Z,21.16
2022-08-28T10:08:05.660Z,21.16
2022-08-28T10:09:05.582Z,21.17
2022-08-28T10:10:06.588Z,21.16
2022-08-28T10:11:05.545Z,21.20
2022-08-28T10:12:05.552Z,21.32
2022-08-28T10:13:05.523Z,21.53
2022-08-28T10:14:05.537Z,21.74
2022-08-28T10:15:05.494Z,21.81
2022-08-28T10:16:05.521Z,21.83
2022-08-28T10:17:05.485Z,21.81
2022-08-28T10:18:05.559Z,21.78
2022-08-28T10:19:05.479Z,21.69
2022-08-28T10:20:05.452Z,21.54
2022-08-28T10:21:05.433Z,21.45
2022-08-28T10:22:05.422Z,21.39
2022-08-28T10:23:05.475Z,21.32
2022-08-28T10:24:05.428Z,21.19
2022-08-28T10:25:05.389Z,21.13
2022-08-28T10:26:05.381Z,21.08
2022-08-28T10:27:05.373Z,21.02
2022-08-28T10:28:05.362Z,20.99
2022-08-28T10:29:05.365Z,20.95
2022-08-28T10:30:08.876Z,20.93
2022-08-28T10:31:05.373Z,20.93
2022-08-28T10:32:05.318Z,20.93
2022-08-28T10:33:05.309Z,20.98
2022-08-28T10:34:05.316Z,21.05
2022-08-28T10:35:05.287Z,21.08
2022-08-28T10:36:05.280Z,21.14
2022-08-28T10:37:05.268Z,21.16
2022-08-28T10:38:05.256Z,21.23
2022-08-28T10:39:05.257Z,21.27
2022-08-28T10:40:05.264Z,21.34
2022-08-28T10:41:05.223Z,21.35
2022-08-28T10:42:05.214Z,21.48
2022-08-28T10:43:05.195Z,21.57
2022-08-28T10:44:05.204Z,21.61
2022-08-28T10:45:05.178Z,21.72
2022-08-28T10:46:05.396Z,22.02
2022-08-28T10:47:05.156Z,22.13
2022-08-28T10:48:05.150Z,22.09
2022-08-28T10:49:05.144Z,22.01
2022-08-28T10:50:05.125Z,21.95
2022-08-28T10:51:05.112Z,21.94
2022-08-28T10:52:05.107Z,21.91
2022-08-28T10:53:05.094Z,21.88
2022-08-28T10:54:05.101Z,21.82
2022-08-28T10:55:05.067Z,21.71
2022-08-28T10:56:05.061Z,21.67
2022-08-28T10:57:05.047Z,21.61
2022-08-28T10:58:05.031Z,21.54
2022-08-28T10:59:05.030Z,21.50
2022-08-28T11:00:05.030Z,21.48
2022-08-28T11:01:05.023Z,21.46
2022-08-28T11:02:04.994Z,21.48
2022-08-28T11:03:05.061Z,21.46
2022-08-28T11:04:04.984Z,21.44
2022-08-28T11:05:04.976Z,21.38
2022-08-28T11:06:04.958Z,21.42
2022-08-28T11:07:04.944Z,21.46
2022-08-28T11:08:04.935Z,21.48
2022-08-28T11:09:04.916Z,21.51
2022-08-28T11:10:04.926Z,21.48
2022-08-28T11:11:04.898Z,21.42
2022-08-28T11:12:04.896Z,21.38
2022-08-28T11:13:04.875Z,21.42
2022-08-28T11:14:04.867Z,21.42
2022-08-28T11:15:04.872Z,21.48
2022-08-28T11:16:04.859Z,21.63
2022-08-28T11:17:04.958Z,21.92
2022-08-28T11:18:04.824Z,22.23
2022-08-28T11:19:04.809Z,22.32
2022-08-28T11:20:04.812Z,22.38
2022-08-28T11:21:04.787Z,22.41
2022-08-28T11:22:04.780Z,22.35
2022-08-28T11:23:04.761Z,22.27
2022-08-28T11:24:04.765Z,22.16
2022-08-28T11:25:09.065Z,21.99
2022-08-28T11:26:04.735Z,21.81
2022-08-28T11:27:04.724Z,21.64
2022-08-28T11:28:04.712Z,21.56
2022-08-28T11:29:04.704Z,21.46
2022-08-28T11:30:04.715Z,21.42
2022-08-28T11:31:04.732Z,21.41
2022-08-28T11:32:04.671Z,21.42
2022-08-28T11:33:04.663Z,21.44
2022-08-28T11:34:04.652Z,21.41
2022-08-28T11:35:04.651Z,21.38
2022-08-28T11:36:04.625Z,21.34
2022-08-28T11:37:04.622Z,21.32
2022-08-28T11:38:04.612Z,21.35
2022-08-28T11:39:04.612Z,21.35
2022-08-28T11:40:04.632Z,21.39
2022-08-28T11:41:04.567Z,21.39
2022-08-28T11:42:04.568Z,21.42
2022-08-28T11:43:04.552Z,21.41
2022-08-28T11:44:04.552Z,21.54
2022-08-28T11:45:04.561Z,21.63
2022-08-28T11:46:04.553Z,21.75
2022-08-28T11:47:04.513Z,21.91
2022-08-28T11:48:04.501Z,22.04
2022-08-28T11:49:04.485Z,22.10
2022-08-28T11:50:04.499Z,22.13
2022-08-28T11:51:04.470Z,22.20
2022-08-28T11:52:04.459Z,22.20
2022-08-28T11:53:04.442Z,22.29
2022-08-28T11:54:04.432Z,22.41
2022-08-28T11:55:04.438Z,22.56
2022-08-28T11:56:04.410Z,22.69
2022-08-28T11:57:04.398Z,22.78
2022-08-28T11:58:36.040Z,23.17
2022-08-28T11:59:37.041Z,23.45
2022-08-28T12:00:37.016Z,23.68
2022-08-28T12:01:37.019Z,23.75
2022-08-28T12:02:37.184Z,23.79
2022-08-28T12:03:36.981Z,23.86
2022-08-28T12:04:37.092Z,23.98
2022-08-28T12:05:36.960Z,24.01
2022-08-28T12:06:36.948Z,24.02
2022-08-28T12:07:36.948Z,23.87
2022-08-28T12:08:36.927Z,23.57
2022-08-28T12:09:36.945Z,23.32
2022-08-28T12:10:36.907Z,23.19
2022-08-28T12:11:36.901Z,23.04
2022-08-28T12:12:36.890Z,22.97
2022-08-28T12:13:36.876Z,22.89
2022-08-28T12:14:36.893Z,22.74
2022-08-28T12:15:36.894Z,22.56
2022-08-28T12:16:36.842Z,22.47
2022-08-28T12:17:36.837Z,22.43
2022-08-28T12:18:36.819Z,22.43
2022-08-28T12:19:36.827Z,22.38
2022-08-28T12:20:36.807Z,22.22
2022-08-28T12:21:36.798Z,22.27
2022-08-28T12:22:36.783Z,22.38
2022-08-28T12:23:36.776Z,22.56
2022-08-28T12:24:36.776Z,22.65
2022-08-28T12:25:36.751Z,22.82
2022-08-28T12:26:36.735Z,22.82
2022-08-28T12:27:36.729Z,22.82
2022-08-28T12:28:36.708Z,22.77
2022-08-28T12:29:36.721Z,22.71
2022-08-28T12:30:36.728Z,22.56
2022-08-28T12:31:36.687Z,22.39
2022-08-28T12:32:36.674Z,22.25
2022-08-28T12:33:36.665Z,22.17
2022-08-28T12:34:36.659Z,22.13
2022-08-28T12:35:36.647Z,22.13
2022-08-28T12:36:37.225Z,22.10
2022-08-28T12:37:39.532Z,22.13
2022-08-28T12:38:36.611Z,22.20
2022-08-28T12:39:36.614Z,22.16
2022-08-28T12:40:36.613Z,22.13
2022-08-28T12:41:36.581Z,22.14
2022-08-28T12:42:36.561Z,22.17
2022-08-28T12:43:40.313Z,22.17
2022-08-28T12:44:36.563Z,22.16
2022-08-28T12:45:36.601Z,22.09
2022-08-28T12:46:36.611Z,22.06
2022-08-28T12:47:36.506Z,22.09
2022-08-28T12:48:36.502Z,22.12
2022-08-28T12:49:36.508Z,22.16
2022-08-28T12:50:36.481Z,22.16
2022-08-28T12:51:36.473Z,22.13
2022-08-28T12:52:36.485Z,22.12